Terminal Aerodrome Forecast
Issued by NWS Cleveland, OH

Home | Current Version | Previous Version | Text Only | Print | Product List | Glossary On
Versions: 1 2 3 4 5 6 7 8 9 10 11 12 13 14 15 16 17 18 19 20 21 22 23 24 25
000
FTUS41 KCLE 021700
TAFCAK
TAF
KCAK 021726Z 0218/0318 22006KT P6SM OVC035
      TEMPO 0218/0222 3SM SHRA OVC015
     FM022200 27008KT P6SM BKN050
     FM030200 VRB03KT 6SM BR FEW050
     FM030900 VRB03KT 3SM BR SCT015
      TEMPO 0310/0312 2SM BR
     FM031300 25005KT P6SM FEW050=

USA.gov is the U.S. government's official web portal to all federal, state and local government web resources and services.